createdAt,value
2022-11-17T00:00:50.829Z,8.65
2022-11-17T00:03:19.075Z,9.05
2022-11-17T00:05:47.801Z,9.25
2022-11-17T00:08:16.943Z,8.20
2022-11-17T00:10:44.934Z,9.35
2022-11-17T00:13:31.589Z,7.68
2022-11-17T00:15:59.571Z,10.48
2022-11-17T00:18:46.464Z,8.57
2022-11-17T00:21:21.873Z,9.93
2022-11-17T00:23:50.944Z,11.52
2022-11-17T00:26:27.965Z,8.95
2022-11-17T00:29:01.763Z,7.43
2022-11-17T00:31:51.737Z,9.82
2022-11-17T00:34:22.588Z,10.13
2022-11-17T00:36:55.667Z,7.63
2022-11-17T00:39:25.266Z,7.72
2022-11-17T00:41:53.768Z,9.90
2022-11-17T00:44:24.441Z,7.30
2022-11-17T00:46:52.600Z,6.70
2022-11-17T00:49:25.360Z,8.95
2022-11-17T00:51:58.509Z,8.35
2022-11-17T00:54:27.579Z,8.63
2022-11-17T00:56:55.503Z,8.05
2022-11-17T00:59:24.054Z,8.27
2022-11-17T01:01:52.083Z,7.47
2022-11-17T01:04:20.575Z,7.05
2022-11-17T01:06:50.298Z,8.43
2022-11-17T01:09:21.542Z,8.27
2022-11-17T01:14:22.512Z,8.18
2022-11-17T01:16:53.950Z,7.13
2022-11-17T01:19:23.800Z,8.70
2022-11-17T01:21:52.605Z,7.60
2022-11-17T01:24:21.089Z,6.55
2022-11-17T01:26:52.019Z,8.85
2022-11-17T01:29:20.254Z,7.20
2022-11-17T01:31:55.717Z,7.75
2022-11-17T01:34:24.065Z,8.45
2022-11-17T01:37:11.377Z,7.35
2022-11-17T01:39:42.670Z,6.47
2022-11-17T01:42:28.724Z,6.40
2022-11-17T01:44:58.559Z,7.63
2022-11-17T01:47:50.228Z,7.25
2022-11-17T01:50:18.378Z,7.80
2022-11-17T01:52:48.985Z,7.45
2022-11-17T01:55:21.180Z,6.55
2022-11-17T01:58:03.536Z,6.80
2022-11-17T02:00:32.187Z,7.28
2022-11-17T02:03:07.390Z,8.18
2022-11-17T02:06:08.284Z,6.55
2022-11-17T02:08:46.274Z,10.45
2022-11-17T02:11:18.582Z,7.30
2022-11-17T02:13:46.831Z,8.80
2022-11-17T02:16:16.384Z,7.15
2022-11-17T02:18:47.320Z,7.78
2022-11-17T02:22:09.661Z,7.78
2022-11-17T02:25:03.133Z,8.70
2022-11-17T02:27:42.199Z,7.28
2022-11-17T02:30:16.972Z,6.40
2022-11-17T02:33:38.374Z,8.40
2022-11-17T02:36:18.194Z,7.40
2022-11-17T02:39:16.178Z,8.00
2022-11-17T02:41:54.126Z,6.97
2022-11-17T02:44:37.945Z,8.35
2022-11-17T02:47:12.941Z,8.32
2022-11-17T02:49:46.308Z,8.38
2022-11-17T02:52:15.673Z,9.48
2022-11-17T02:54:43.790Z,7.93
2022-11-17T02:57:33.707Z,10.30
2022-11-17T03:00:10.922Z,10.73
2022-11-17T03:02:49.620Z,8.77
2022-11-17T03:05:20.826Z,8.70
2022-11-17T03:08:09.939Z,8.23
2022-11-17T03:10:57.004Z,13.27
2022-11-17T03:13:38.372Z,9.07
2022-11-17T03:16:32.162Z,9.05
2022-11-17T03:19:08.962Z,8.13
2022-11-17T03:21:54.592Z,8.90
2022-11-17T03:24:29.231Z,8.18
2022-11-17T03:27:04.236Z,8.77
2022-11-17T03:29:34.869Z,8.77
2022-11-17T03:32:07.630Z,7.22
2022-11-17T03:34:45.840Z,7.63
2022-11-17T03:37:15.991Z,8.23
2022-11-17T03:39:49.779Z,8.63
2022-11-17T03:42:23.052Z,10.32
2022-11-17T03:44:55.733Z,8.48
2022-11-17T03:47:27.076Z,9.77
2022-11-17T03:50:12.031Z,7.68
2022-11-17T03:52:41.034Z,8.23
2022-11-17T03:55:09.915Z,8.95
2022-11-17T03:57:55.158Z,11.07
2022-11-17T04:00:22.959Z,9.95
2022-11-17T04:02:56.029Z,11.10
2022-11-17T04:05:23.810Z,9.98
2022-11-17T04:07:51.853Z,9.88
2022-11-17T04:10:26.105Z,8.88
2022-11-17T04:13:13.206Z,11.43
2022-11-17T04:15:57.598Z,10.52
2022-11-17T04:18:26.012Z,9.25
2022-11-17T04:20:55.694Z,9.50
2022-11-17T04:23:25.645Z,10.45
2022-11-17T04:26:14.144Z,9.25
2022-11-17T04:28:46.322Z,8.13
2022-11-17T04:31:19.685Z,10.05
2022-11-17T04:33:52.632Z,10.32
2022-11-17T04:36:26.846Z,9.15
2022-11-17T04:38:57.025Z,12.60
2022-11-17T04:41:47.824Z,9.98
2022-11-17T04:44:18.023Z,11.82
2022-11-17T04:46:48.430Z,9.80
2022-11-17T04:49:18.510Z,12.10
2022-11-17T04:51:50.060Z,10.20
2022-11-17T04:54:24.319Z,12.15
2022-11-17T04:56:55.873Z,9.90
2022-11-17T04:59:24.507Z,11.82
2022-11-17T05:01:52.401Z,11.48
2022-11-17T05:04:43.519Z,10.15
2022-11-17T05:07:11.578Z,11.40
2022-11-17T05:09:39.647Z,10.60
2022-11-17T05:12:29.224Z,12.25
2022-11-17T05:14:57.245Z,12.35
2022-11-17T05:17:25.160Z,14.98
2022-11-17T05:19:53.269Z,13.85
2022-11-17T05:22:42.747Z,11.35
2022-11-17T05:25:11.330Z,12.80
2022-11-17T05:27:39.624Z,11.18
2022-11-17T05:30:09.063Z,10.23
2022-11-17T05:32:36.874Z,11.77
2022-11-17T05:35:05.658Z,11.90
2022-11-17T05:37:33.468Z,14.23
2022-11-17T05:40:02.578Z,11.75
2022-11-17T05:42:30.304Z,10.77
2022-11-17T05:44:58.563Z,12.02
2022-11-17T05:47:26.606Z,9.73
2022-11-17T05:49:54.918Z,14.65
2022-11-17T05:52:22.878Z,10.25
2022-11-17T05:54:53.816Z,11.45
2022-11-17T05:57:28.956Z,10.60
2022-11-17T06:00:01.872Z,13.93
2022-11-17T06:02:34.725Z,10.98
2022-11-17T06:05:04.054Z,10.10
2022-11-17T06:07:32.691Z,12.88
2022-11-17T06:10:00.565Z,13.05
2022-11-17T06:12:28.805Z,12.70
2022-11-17T06:14:57.881Z,14.52
2022-11-17T06:17:35.947Z,13.63
2022-11-17T06:20:20.161Z,14.18
2022-11-17T06:22:50.191Z,11.15
2022-11-17T06:25:19.769Z,11.07
2022-11-17T06:27:50.798Z,11.07
2022-11-17T06:30:19.220Z,8.13
2022-11-17T06:32:50.234Z,9.00
2022-11-17T06:35:21.266Z,11.82
2022-11-17T06:37:49.731Z,8.93
2022-11-17T06:40:17.970Z,14.65
2022-11-17T06:43:04.100Z,11.23
2022-11-17T06:45:41.067Z,10.50
2022-11-17T06:48:10.520Z,7.88
2022-11-17T06:50:39.012Z,6.85
2022-11-17T06:53:10.779Z,9.73
2022-11-17T06:58:13.340Z,8.95
2022-11-17T07:00:41.776Z,7.75
2022-11-17T07:03:11.289Z,9.30
2022-11-17T07:05:42.797Z,8.15
2022-11-17T07:08:12.096Z,6.43
2022-11-17T07:10:48.983Z,9.65
2022-11-17T07:13:18.459Z,8.00
2022-11-17T07:15:46.786Z,9.48
2022-11-17T07:18:20.036Z,8.38
2022-11-17T07:20:54.310Z,8.68
2022-11-17T07:23:24.003Z,7.68
2022-11-17T07:25:53.763Z,7.60
2022-11-17T07:28:22.372Z,6.40
2022-11-17T07:30:51.058Z,6.35
2022-11-17T07:33:22.451Z,11.25
2022-11-17T07:35:51.529Z,11.65
2022-11-17T07:38:23.690Z,8.13
2022-11-17T07:40:55.437Z,8.20
2022-11-17T07:43:24.209Z,6.60
2022-11-17T07:45:54.747Z,6.80
2022-11-17T07:48:24.784Z,6.85
2022-11-17T07:50:52.900Z,14.23
2022-11-17T07:53:22.747Z,6.88
2022-11-17T07:55:51.955Z,11.38
2022-11-17T07:58:21.099Z,5.78
2022-11-17T08:00:49.079Z,9.07
2022-11-17T08:03:22.528Z,6.95
2022-11-17T08:05:53.588Z,6.40
2022-11-17T08:08:22.348Z,7.40
2022-11-17T08:10:50.977Z,9.15
2022-11-17T08:13:19.719Z,8.93
2022-11-17T08:15:47.482Z,6.55
2022-11-17T08:18:15.534Z,10.00
2022-11-17T08:20:43.552Z,8.10
2022-11-17T08:23:11.917Z,8.48
2022-11-17T08:25:39.880Z,6.38
2022-11-17T08:28:13.515Z,6.13
2022-11-17T08:30:41.684Z,10.50
2022-11-17T08:33:10.961Z,5.85
2022-11-17T08:35:41.721Z,8.88
2022-11-17T08:38:11.975Z,8.38
2022-11-17T08:40:41.717Z,4.28
2022-11-17T08:43:09.909Z,9.30
2022-11-17T08:45:37.863Z,10.02
2022-11-17T08:48:07.694Z,9.95
2022-11-17T08:50:36.138Z,13.52
2022-11-17T08:53:04.383Z,48.30
2022-11-17T08:55:40.738Z,22.60
2022-11-17T08:58:11.963Z,27.45
2022-11-17T09:00:45.685Z,14.18
2022-11-17T09:03:14.243Z,12.02
2022-11-17T09:05:45.021Z,11.10
2022-11-17T09:08:44.908Z,16.88
2022-11-17T09:11:10.768Z,10.20
2022-11-17T09:13:41.025Z,9.52
2022-11-17T09:16:19.329Z,14.57
2022-11-17T10:34:41.353Z,15.77
2022-11-17T10:37:13.730Z,17.38
2022-11-17T10:39:51.247Z,34.22
2022-11-17T10:42:22.130Z,15.40
2022-11-17T10:44:54.374Z,261.90
2022-11-17T10:47:46.721Z,43.55
2022-11-17T10:50:29.191Z,39.92
2022-11-17T10:53:26.577Z,57.70
2022-11-17T10:56:09.240Z,61.60
2022-11-17T10:58:58.529Z,28.42
2022-11-17T11:01:39.386Z,39.00
2022-11-17T11:04:32.302Z,164.07
2022-11-17T11:07:30.128Z,123.65
2022-11-17T11:10:05.028Z,153.02
2022-11-17T11:13:07.327Z,21.38
2022-11-17T11:15:59.563Z,16.10
2022-11-17T11:18:30.519Z,26.92
2022-11-17T11:21:14.547Z,45.33
2022-11-17T11:24:07.347Z,21.35
2022-11-17T11:26:54.608Z,12.80
2022-11-17T11:30:01.461Z,15.82
2022-11-17T11:33:09.918Z,9.23
2022-11-17T11:35:38.348Z,13.80
2022-11-17T11:38:37.505Z,10.32
2022-11-17T11:41:31.177Z,10.38
2022-11-17T11:44:22.215Z,7.30
2022-11-17T11:47:12.683Z,9.05
2022-11-17T11:49:49.115Z,11.63
2022-11-17T11:52:27.164Z,9.00
2022-11-17T11:55:10.665Z,7.60
2022-11-17T11:58:06.913Z,9.18
2022-11-17T12:00:36.343Z,6.50
2022-11-17T12:03:35.894Z,8.75
2022-11-17T12:06:44.168Z,11.07
2022-11-17T12:09:34.866Z,11.70
2022-11-17T12:12:22.043Z,8.35
2022-11-17T12:15:11.437Z,10.48
2022-11-17T12:17:53.021Z,13.05
2022-11-17T12:20:53.039Z,10.18
2022-11-17T12:23:38.989Z,11.07
2022-11-17T12:26:07.852Z,8.73
2022-11-17T12:28:39.546Z,10.05
2022-11-17T12:31:44.483Z,13.48
2022-11-17T12:34:41.861Z,15.82
2022-11-17T12:37:26.850Z,9.73
2022-11-17T12:40:30.385Z,13.80
2022-11-17T12:43:17.858Z,11.25
2022-11-17T12:45:59.547Z,12.02
2022-11-17T12:51:30.164Z,9.85
2022-11-17T12:54:27.605Z,13.98
2022-11-17T12:57:22.951Z,10.35
2022-11-17T13:00:15.557Z,11.95
2022-11-17T13:03:10.796Z,11.90
2022-11-17T13:05:40.141Z,11.60
2022-11-17T13:08:15.625Z,13.85
2022-11-17T13:10:47.785Z,10.02
2022-11-17T13:13:30.827Z,8.27
2022-11-17T13:16:08.523Z,9.27
2022-11-17T13:18:44.472Z,11.77
2022-11-17T13:21:34.568Z,12.15
2022-11-17T13:24:12.198Z,13.95
2022-11-17T13:26:59.587Z,16.58
2022-11-17T13:29:29.977Z,13.57
2022-11-17T13:32:35.222Z,11.70
2022-11-17T13:35:31.135Z,15.40
2022-11-17T13:38:12.730Z,12.27
2022-11-17T13:40:44.555Z,40.55
2022-11-17T13:43:20.282Z,40.97
2022-11-17T13:45:54.387Z,15.07
2022-11-17T13:49:04.835Z,18.23
2022-11-17T13:51:41.065Z,23.88
2022-11-17T13:54:13.631Z,16.95
2022-11-17T13:56:55.157Z,37.33
2022-11-17T13:59:31.719Z,46.28
2022-11-17T14:02:18.599Z,42.22
2022-11-17T14:05:14.741Z,37.22
2022-11-17T14:07:51.734Z,24.33
2022-11-17T14:10:39.078Z,30.02
2022-11-17T14:13:26.162Z,40.00
2022-11-17T14:15:59.992Z,43.53
2022-11-17T14:18:43.836Z,41.30
2022-11-17T14:21:21.529Z,58.08
2022-11-17T14:24:07.711Z,66.50
2022-11-17T14:26:45.333Z,57.15
2022-11-17T14:29:20.213Z,66.43
2022-11-17T14:31:57.148Z,59.40
2022-11-17T14:34:34.182Z,108.95
2022-11-17T14:37:15.313Z,49.95
2022-11-17T14:39:44.610Z,228.50
2022-11-17T14:42:17.353Z,97.47
2022-11-17T14:44:49.349Z,96.07
2022-11-17T14:47:22.044Z,133.10
2022-11-17T14:49:54.735Z,146.35
2022-11-17T14:52:24.700Z,131.55
2022-11-17T14:54:59.626Z,113.03
2022-11-17T14:57:34.481Z,125.65
2022-11-17T15:00:14.641Z,109.00
2022-11-17T15:03:02.929Z,165.63
2022-11-17T15:05:37.798Z,129.52
2022-11-17T15:08:09.591Z,74.75
2022-11-17T15:10:49.122Z,51.13
2022-11-17T15:13:22.786Z,29.53
2022-11-17T15:16:02.230Z,30.77
2022-11-17T15:18:34.246Z,33.33
2022-11-17T15:21:11.548Z,46.40
2022-11-17T15:23:46.541Z,53.95
2022-11-17T15:26:29.079Z,77.78
2022-11-17T15:29:01.571Z,74.28
2022-11-17T15:31:39.228Z,92.05
2022-11-17T15:34:20.185Z,98.85
2022-11-17T15:36:54.765Z,86.75
2022-11-17T15:39:27.360Z,82.13
2022-11-17T15:42:00.786Z,87.70
2022-11-17T15:44:36.401Z,67.30
2022-11-17T15:47:09.585Z,58.55
2022-11-17T15:49:38.948Z,70.22
2022-11-17T15:52:19.590Z,81.22
2022-11-17T15:55:07.472Z,77.53
2022-11-17T15:57:44.758Z,136.95
2022-11-17T16:00:16.299Z,133.23
2022-11-17T16:02:58.483Z,161.00
2022-11-17T16:05:27.596Z,170.13
2022-11-17T16:07:56.412Z,133.88
2022-11-17T16:10:27.704Z,179.02
2022-11-17T16:13:05.753Z,216.05
2022-11-17T16:15:42.372Z,203.77
2022-11-17T16:18:17.180Z,162.85
2022-11-17T16:20:51.358Z,157.00
2022-11-17T16:23:28.443Z,198.95
2022-11-17T16:26:02.040Z,185.03
2022-11-17T16:28:35.460Z,326.40
2022-11-17T16:31:24.520Z,261.83
2022-11-17T16:34:17.471Z,226.60
2022-11-17T16:36:49.686Z,216.93
2022-11-17T16:39:21.697Z,211.70
2022-11-17T16:41:56.331Z,165.32
2022-11-17T16:44:26.833Z,155.52
2022-11-17T16:47:01.749Z,167.10
2022-11-17T16:49:32.840Z,179.90
2022-11-17T16:52:07.734Z,137.57
2022-11-17T16:54:42.578Z,140.20
2022-11-17T16:57:13.747Z,157.27
2022-11-17T16:59:53.478Z,163.35
2022-11-17T17:02:28.330Z,187.27
2022-11-17T17:05:05.441Z,244.23
2022-11-17T17:07:39.529Z,299.52
2022-11-17T17:10:14.244Z,324.80
2022-11-17T17:12:52.697Z,277.63
2022-11-17T17:15:21.553Z,226.48
2022-11-17T17:17:56.289Z,186.18
2022-11-17T17:20:30.906Z,154.85
2022-11-17T17:23:04.084Z,114.35
2022-11-17T17:28:16.544Z,132.73
2022-11-17T17:31:06.287Z,143.45
2022-11-17T17:33:43.273Z,179.50
2022-11-17T17:36:18.478Z,197.57
2022-11-17T17:38:51.784Z,230.57
2022-11-17T17:41:35.406Z,297.70
2022-11-17T17:44:22.053Z,310.95
2022-11-17T17:46:58.052Z,264.15
2022-11-17T17:49:35.310Z,271.40
2022-11-17T17:52:14.009Z,254.18
2022-11-17T17:54:43.787Z,264.17
2022-11-17T17:57:15.452Z,271.92
2022-11-17T17:59:47.304Z,204.87
2022-11-17T18:02:33.423Z,185.35
2022-11-17T18:05:04.271Z,182.10
2022-11-17T18:07:36.253Z,166.82
2022-11-17T18:10:05.154Z,158.88
2022-11-17T18:12:40.800Z,103.63
2022-11-17T18:15:17.518Z,134.20
2022-11-17T18:17:57.738Z,114.22
2022-11-17T18:20:31.378Z,116.57
2022-11-17T18:23:06.012Z,112.10
2022-11-17T18:25:39.842Z,99.28
2022-11-17T18:28:08.659Z,95.70
2022-11-17T18:30:39.583Z,92.63
2022-11-17T18:33:15.293Z,87.15
2022-11-17T18:35:46.576Z,97.85
2022-11-17T18:38:20.056Z,191.23
2022-11-17T18:40:54.384Z,257.27
2022-11-17T18:43:38.476Z,162.48
2022-11-17T18:46:09.564Z,136.55
2022-11-17T18:48:46.606Z,121.30
2022-11-17T18:51:20.951Z,89.50
2022-11-17T18:53:55.536Z,86.93
2022-11-17T18:56:29.803Z,84.55
2022-11-17T18:59:23.430Z,72.20
2022-11-17T19:01:56.719Z,79.55
2022-11-17T19:04:33.072Z,112.25
2022-11-17T19:07:04.834Z,145.77
2022-11-17T19:09:36.051Z,109.45
2022-11-17T19:12:10.035Z,91.13
2022-11-17T19:14:43.912Z,222.00
2022-11-17T19:17:15.175Z,267.88
2022-11-17T19:19:45.071Z,152.38
2022-11-17T19:22:16.534Z,90.63
2022-11-17T19:24:45.848Z,77.82
2022-11-17T19:27:16.808Z,68.65
2022-11-17T19:29:45.590Z,78.63
2022-11-17T19:32:17.876Z,88.40
2022-11-17T19:37:23.387Z,67.93
2022-11-17T19:39:57.826Z,71.03
2022-11-17T19:42:26.481Z,60.28
2022-11-17T19:45:02.142Z,61.08
2022-11-17T19:47:30.279Z,77.55
2022-11-17T19:50:05.740Z,77.63
2022-11-17T19:52:35.986Z,99.93
2022-11-17T19:55:09.696Z,90.95
2022-11-17T19:57:41.575Z,88.25
2022-11-17T20:00:13.509Z,88.05
2022-11-17T20:02:42.193Z,80.05
2022-11-17T20:07:55.896Z,65.40
2022-11-17T20:10:28.728Z,72.10
2022-11-17T20:12:58.703Z,50.58
2022-11-17T20:15:34.230Z,74.80
2022-11-17T20:18:13.960Z,81.88
2022-11-17T20:20:45.804Z,61.17
2022-11-17T20:23:22.625Z,65.40
2022-11-17T20:25:51.421Z,56.53
2022-11-17T20:28:19.691Z,52.72
2022-11-17T20:30:51.227Z,58.80
2022-11-17T20:33:25.482Z,77.30
2022-11-17T20:35:54.525Z,88.35
2022-11-17T20:38:25.935Z,104.68
2022-11-17T20:44:03.573Z,102.85
2022-11-17T20:46:47.249Z,111.75
2022-11-17T20:49:33.353Z,78.63
2022-11-17T20:52:13.376Z,56.90
2022-11-17T20:54:46.291Z,40.42
2022-11-17T20:57:20.983Z,42.42
2022-11-17T21:00:03.808Z,34.95
2022-11-17T21:02:43.045Z,43.88
2022-11-17T21:05:13.844Z,39.67
2022-11-17T21:07:54.524Z,47.15
2022-11-17T21:10:32.023Z,49.63
2022-11-17T21:13:02.017Z,41.80
2022-11-17T21:15:38.632Z,48.10
2022-11-17T21:18:26.024Z,37.28
2022-11-17T21:21:17.683Z,33.28
2022-11-17T21:23:51.545Z,33.13
2022-11-17T21:26:40.404Z,26.25
2022-11-17T21:29:14.318Z,24.55
2022-11-17T21:31:48.180Z,26.60
2022-11-17T21:34:19.008Z,28.70
2022-11-17T21:36:47.034Z,30.38
2022-11-17T21:39:35.057Z,30.88
2022-11-17T21:42:10.862Z,28.17
2022-11-17T21:44:40.263Z,30.60
2022-11-17T21:47:14.526Z,32.20
2022-11-17T21:49:44.774Z,31.40
2022-11-17T21:52:19.288Z,30.80
2022-11-17T21:54:55.229Z,35.97
2022-11-17T21:57:24.004Z,37.42
2022-11-17T22:02:22.639Z,34.75
2022-11-17T22:04:56.238Z,33.38
2022-11-17T22:07:24.552Z,34.58
2022-11-17T22:09:58.507Z,33.58
2022-11-17T22:12:31.579Z,38.25
2022-11-17T22:15:00.624Z,37.55
2022-11-17T22:17:38.728Z,35.30
2022-11-17T22:20:10.563Z,37.53
2022-11-17T22:22:48.019Z,40.33
2022-11-17T22:25:43.627Z,45.83
2022-11-17T22:28:20.332Z,42.75
2022-11-17T22:31:04.925Z,48.25
2022-11-17T22:33:42.032Z,48.28
2022-11-17T22:36:17.215Z,46.03
2022-11-17T22:38:56.149Z,47.08
2022-11-17T22:41:31.100Z,56.50
2022-11-17T22:44:19.247Z,56.35
2022-11-17T22:46:48.202Z,47.88
2022-11-17T22:49:25.278Z,42.92
2022-11-17T22:52:09.197Z,37.15
2022-11-17T22:54:38.340Z,42.22
2022-11-17T22:57:07.320Z,35.55
2022-11-17T23:02:32.548Z,36.00
2022-11-17T23:05:01.111Z,39.42
2022-11-17T23:07:31.201Z,34.15
2022-11-17T23:10:09.055Z,31.45
2022-11-17T23:12:44.969Z,26.83
2022-11-17T23:15:13.490Z,23.85
2022-11-17T23:17:43.124Z,20.88
2022-11-17T23:20:14.875Z,20.83
2022-11-17T23:22:55.281Z,19.15
2022-11-17T23:25:23.607Z,17.65
2022-11-17T23:28:05.057Z,17.70
2022-11-17T23:30:41.666Z,18.27
2022-11-17T23:33:12.366Z,20.40
2022-11-17T23:35:47.202Z,19.10
2022-11-17T23:38:18.654Z,15.98
2022-11-17T23:40:47.222Z,14.80
2022-11-17T23:43:25.335Z,14.05
2022-11-17T23:46:00.610Z,18.02
2022-11-17T23:48:30.143Z,12.00
2022-11-17T23:51:03.737Z,11.98
2022-11-17T23:53:32.944Z,13.38
2022-11-17T23:56:03.713Z,13.60
2022-11-17T23:58:33.356Z,13.25
